Time;durP1;ratioP1;P1;durP2;ratioP2;P2;SDS_P1;SDS_P2;PMS_P1;PMS_P2;Temp;Humidity;BMP_temperature;BMP_pressure;BME280_temperature;BME280_humidity;BME280_pressure;Samples;Min_cycle;Max_cycle;Signal;HPM_P1;HPM_P2
2023/05/17 00:00:51;;;;;;;;;;;;;;;6.05;100.00;96196.88;5083557;28;19928;-73
2023/05/17 00:03:18;;;;;;;;;;;;;;;6.06;100.00;96201.94;5090506;28;19925;-72
2023/05/17 00:05:44;;;;;;;;;;;;;;;6.16;100.00;96204.19;5083149;28;20468;-73
2023/05/17 00:08:10;;;;;;;;;;;;;;;6.08;100.00;96207.00;5088978;28;20375;-73
2023/05/17 00:10:37;;;;;;;;;;;;;;;5.98;100.00;96206.53;5085824;28;20011;-73
2023/05/17 00:13:03;;;;;;;;;;;;;;;5.89;100.00;96208.59;5089777;28;20352;-73
2023/05/17 00:15:31;;;;;;;;;;;;;;;5.89;100.00;96206.84;5079312;28;19929;-72
2023/05/17 00:17:57;;;;;;;;;;;;;;;5.83;100.00;96204.53;5088171;28;19924;-72
2023/05/17 00:20:23;;;;;;;;;;;;;;;5.95;100.00;96210.97;5077800;28;19924;-73
2023/05/17 00:22:49;;;;;;;;;;;;;;;5.85;100.00;96204.44;5086154;28;19932;-73
2023/05/17 00:25:16;;;;;;;;;;;;;;;5.90;100.00;96203.41;5081870;28;19924;-73
2023/05/17 00:27:42;;;;;;;;;;;;;;;5.79;100.00;96206.38;5079790;28;19928;-73
2023/05/17 00:30:08;;;;;;;;;;;;;;;5.70;100.00;96211.81;5084126;28;20283;-72
2023/05/17 00:32:36;;;;;;;;;;;;;;;5.73;100.00;96218.59;5071645;28;19928;-73
2023/05/17 00:35:02;;;;;;;;;;;;;;;5.78;100.00;96212.41;5083850;28;19928;-72
2023/05/17 00:37:28;;;;;;;;;;;;;;;5.81;100.00;96209.69;5079218;28;19925;-72
2023/05/17 00:39:55;;;;;;;;;;;;;;;5.81;100.00;96214.00;5077307;28;19936;-73
2023/05/17 00:42:21;;;;;;;;;;;;;;;5.87;100.00;96218.09;5088507;28;19931;-72
2023/05/17 00:44:47;;;;;;;;;;;;;;;5.86;100.00;96224.13;5083366;28;19924;-72
2023/05/17 00:47:13;;;;;;;;;;;;;;;5.83;100.00;96230.22;5081182;28;19924;-73
2023/05/17 00:49:41;;;;;;;;;;;;;;;5.79;100.00;96231.22;5082555;28;19932;-72
2023/05/17 00:52:07;;;;;;;;;;;;;;;5.61;100.00;96224.19;5085095;28;19977;-73
2023/05/17 00:54:34;;;;;;;;;;;;;;;5.53;100.00;96229.59;5088139;28;20333;-73
2023/05/17 00:57:00;;;;;;;;;;;;;;;5.56;100.00;96229.47;5086118;28;20022;-73
2023/05/17 00:59:27;;;;;;;;;;;;;;;5.57;100.00;96223.47;5088266;28;19970;-73
2023/05/17 01:01:54;;;;;;;;;;;;;;;5.50;100.00;96227.13;5084557;28;19928;-73
2023/05/17 01:04:20;;;;;;;;;;;;;;;5.39;100.00;96227.50;5081203;28;19936;-73
2023/05/17 01:06:48;;;;;;;;;;;;;;;5.46;100.00;96234.13;5085605;28;19924;-72
2023/05/17 01:09:15;;;;;;;;;;;;;;;5.57;100.00;96237.13;5076557;28;19982;-72
2023/05/17 01:11:46;;;;;;;;;;;;;;;5.55;100.00;96238.91;5078916;28;19989;-73
2023/05/17 01:14:17;;;;;;;;;;;;;;;5.54;100.00;96244.13;5083443;28;20352;-73
2023/05/17 01:16:45;;;;;;;;;;;;;;;5.48;100.00;96245.16;5082526;28;19928;-73
2023/05/17 01:19:15;;;;;;;;;;;;;;;5.50;100.00;96245.13;5082662;28;19924;-73
2023/05/17 01:21:50;;;;;;;;;;;;;;;5.47;100.00;96243.50;5078929;28;20320;-72
2023/05/17 01:24:25;;;;;;;;;;;;;;;5.38;100.00;96246.41;5088413;28;19928;-74
2023/05/17 01:26:53;;;;;;;;;;;;;;;5.34;100.00;96239.69;5076993;28;20015;-73
2023/05/17 01:29:24;;;;;;;;;;;;;;;5.27;100.00;96245.94;5086832;28;19932;-72
2023/05/17 01:31:51;;;;;;;;;;;;;;;5.21;100.00;96244.38;5076412;28;19994;-73
2023/05/17 01:34:24;;;;;;;;;;;;;;;5.18;100.00;96254.75;5074993;28;19924;-74
2023/05/17 01:36:50;;;;;;;;;;;;;;;5.12;100.00;96249.00;5081721;28;20010;-72
2023/05/17 01:39:16;;;;;;;;;;;;;;;5.07;100.00;96244.84;5084986;28;19924;-72
2023/05/17 01:41:46;;;;;;;;;;;;;;;5.11;100.00;96248.16;5087578;28;20367;-72
2023/05/17 01:44:18;;;;;;;;;;;;;;;5.07;100.00;96249.97;5085047;28;20318;-72
2023/05/17 01:46:46;;;;;;;;;;;;;;;5.10;100.00;96254.19;5076707;28;19932;-72
2023/05/17 01:49:18;;;;;;;;;;;;;;;5.10;100.00;96260.16;5087678;28;20045;-72
2023/05/17 01:51:47;;;;;;;;;;;;;;;5.12;100.00;96260.13;5082654;28;19982;-72
2023/05/17 01:54:14;;;;;;;;;;;;;;;5.10;100.00;96262.72;5085175;28;19931;-72
2023/05/17 01:56:42;;;;;;;;;;;;;;;5.06;100.00;96268.00;5086872;28;19931;-72
2023/05/17 01:59:11;;;;;;;;;;;;;;;5.04;100.00;96262.94;5082132;28;20689;-72
2023/05/17 02:01:39;;;;;;;;;;;;;;;5.02;100.00;96257.00;5088169;28;19969;-73
2023/05/17 02:04:05;;;;;;;;;;;;;;;5.02;100.00;96258.75;5087333;28;20349;-73
2023/05/17 02:06:31;;;;;;;;;;;;;;;5.00;100.00;96260.50;5088486;28;20002;-73
2023/05/17 02:09:01;;;;;;;;;;;;;;;4.93;100.00;96259.91;5083134;28;19970;-72
2023/05/17 02:11:27;;;;;;;;;;;;;;;4.94;100.00;96258.16;5084767;28;19924;-72
2023/05/17 02:13:53;;;;;;;;;;;;;;;4.84;100.00;96262.75;5082223;28;19925;-72
2023/05/17 02:16:20;;;;;;;;;;;;;;;4.91;100.00;96265.97;5082086;28;20398;-72
2023/05/17 02:18:47;;;;;;;;;;;;;;;4.72;100.00;96268.28;5089174;28;19931;-72
2023/05/17 02:21:14;;;;;;;;;;;;;;;4.82;100.00;96262.81;5084751;28;19929;-72
2023/05/17 02:23:40;;;;;;;;;;;;;;;4.84;100.00;96267.88;5086314;28;19924;-72
2023/05/17 02:26:06;;;;;;;;;;;;;;;4.87;100.00;96272.91;5077595;28;20536;-72
2023/05/17 02:28:32;;;;;;;;;;;;;;;4.87;100.00;96270.34;5083620;28;20356;-72
2023/05/17 02:30:59;;;;;;;;;;;;;;;4.90;100.00;96266.84;5082372;28;19936;-72
2023/05/17 02:33:25;;;;;;;;;;;;;;;4.97;100.00;96266.59;5081452;28;19970;-72
2023/05/17 02:35:53;;;;;;;;;;;;;;;4.93;100.00;96267.59;5078268;28;19924;-72
2023/05/17 02:38:19;;;;;;;;;;;;;;;4.85;100.00;96266.97;5089009;28;20344;-72
2023/05/17 02:40:45;;;;;;;;;;;;;;;4.83;100.00;96268.78;5082187;28;19931;-72
2023/05/17 02:43:11;;;;;;;;;;;;;;;4.76;100.00;96269.84;5078349;28;19928;-72
2023/05/17 02:45:37;;;;;;;;;;;;;;;4.78;100.00;96273.19;5077929;28;19928;-72
2023/05/17 02:48:04;;;;;;;;;;;;;;;4.78;100.00;96275.75;5081518;28;19928;-72
2023/05/17 02:50:30;;;;;;;;;;;;;;;4.70;100.00;96272.59;5082631;28;20292;-72
2023/05/17 02:52:58;;;;;;;;;;;;;;;4.65;100.00;96269.34;5086185;28;19924;-72
2023/05/17 02:55:24;;;;;;;;;;;;;;;4.70;100.00;96275.16;5088953;28;19928;-72
2023/05/17 02:57:51;;;;;;;;;;;;;;;4.65;100.00;96265.06;5086794;28;19947;-72
2023/05/17 03:00:17;;;;;;;;;;;;;;;4.68;100.00;96271.84;5083268;28;19972;-72
2023/05/17 03:02:43;;;;;;;;;;;;;;;4.70;100.00;96270.03;5089611;28;19935;-72
2023/05/17 03:05:10;;;;;;;;;;;;;;;4.59;100.00;96267.81;5082908;28;19925;-72
2023/05/17 03:07:36;;;;;;;;;;;;;;;4.57;100.00;96272.16;5083140;28;19924;-72
2023/05/17 03:10:04;;;;;;;;;;;;;;;4.56;100.00;96280.72;5077792;28;19955;-72
2023/05/17 03:12:30;;;;;;;;;;;;;;;4.52;100.00;96276.56;5083578;28;19924;-72
2023/05/17 03:14:57;;;;;;;;;;;;;;;4.52;100.00;96281.72;5092915;28;19928;-72
2023/05/17 03:17:23;;;;;;;;;;;;;;;4.50;100.00;96278.38;5077895;28;19935;-72
2023/05/17 03:19:50;;;;;;;;;;;;;;;4.49;100.00;96282.66;5081290;28;19981;-72
2023/05/17 03:22:16;;;;;;;;;;;;;;;4.41;100.00;96279.47;5081676;28;20535;-72
2023/05/17 03:24:42;;;;;;;;;;;;;;;4.35;100.00;96285.63;5080628;28;20443;-72
2023/05/17 03:27:10;;;;;;;;;;;;;;;4.43;100.00;96282.00;5080855;28;19959;-72
2023/05/17 03:29:36;;;;;;;;;;;;;;;4.43;100.00;96279.44;5084199;28;20316;-72
2023/05/17 03:32:02;;;;;;;;;;;;;;;4.36;100.00;96289.03;5090724;28;19928;-72
2023/05/17 03:34:28;;;;;;;;;;;;;;;4.39;100.00;96282.97;5088954;28;19978;-72
2023/05/17 03:36:55;;;;;;;;;;;;;;;4.33;100.00;96284.81;5080689;28;19927;-72
2023/05/17 03:39:21;;;;;;;;;;;;;;;4.34;100.00;96286.53;5080653;28;20357;-72
2023/05/17 03:41:47;;;;;;;;;;;;;;;4.32;100.00;96295.16;5075367;28;19924;-72
2023/05/17 03:44:15;;;;;;;;;;;;;;;4.32;100.00;96287.44;5074715;28;19928;-72
2023/05/17 03:46:41;;;;;;;;;;;;;;;4.36;100.00;96292.44;5078420;28;19981;-72
2023/05/17 03:49:07;;;;;;;;;;;;;;;4.38;100.00;96292.41;5088194;28;19977;-72
2023/05/17 03:51:33;;;;;;;;;;;;;;;4.38;100.00;96289.84;5089281;28;20818;-72
2023/05/17 03:54:00;;;;;;;;;;;;;;;4.39;100.00;96296.66;5088650;28;19933;-73
2023/05/17 03:56:27;;;;;;;;;;;;;;;4.37;100.00;96293.28;5074311;28;19928;-73
2023/05/17 03:58:53;;;;;;;;;;;;;;;4.39;100.00;96299.22;5076697;28;19951;-73
2023/05/17 04:01:20;;;;;;;;;;;;;;;4.41;100.00;96305.13;5072467;28;20345;-72
2023/05/17 04:03:47;;;;;;;;;;;;;;;4.37;100.00;96311.22;5078329;28;19970;-72
2023/05/17 04:06:14;;;;;;;;;;;;;;;4.35;100.00;96307.88;5085158;28;19924;-72
2023/05/17 04:08:41;;;;;;;;;;;;;;;4.41;100.00;96311.97;5083231;28;20483;-72
2023/05/17 04:11:11;;;;;;;;;;;;;;;4.36;100.00;96318.09;5076256;28;19977;-71
2023/05/17 04:13:38;;;;;;;;;;;;;;;4.40;100.00;96315.44;5076954;28;19963;-72
2023/05/17 04:16:04;;;;;;;;;;;;;;;4.42;100.00;96318.81;5076080;28;19932;-72
2023/05/17 04:18:34;;;;;;;;;;;;;;;4.49;100.00;96320.31;5086836;28;20378;-72
2023/05/17 04:21:00;;;;;;;;;;;;;;;4.44;100.00;96332.41;5077328;28;19924;-73
2023/05/17 04:23:26;;;;;;;;;;;;;;;4.49;100.00;96328.84;5083719;28;19924;-73
2023/05/17 04:25:52;;;;;;;;;;;;;;;4.50;100.00;96325.38;5088577;28;19928;-73
2023/05/17 04:28:20;;;;;;;;;;;;;;;4.52;100.00;96328.72;5080581;28;20679;-73
2023/05/17 04:30:47;;;;;;;;;;;;;;;4.55;100.00;96335.50;5087968;28;19950;-72
2023/05/17 04:33:13;;;;;;;;;;;;;;;4.58;100.00;96343.94;5084426;28;20011;-72
2023/05/17 04:35:42;;;;;;;;;;;;;;;4.60;100.00;96341.34;5077164;28;19932;-73
2023/05/17 04:38:08;;;;;;;;;;;;;;;4.69;100.00;96343.63;5082825;28;19924;-72
2023/05/17 04:40:34;;;;;;;;;;;;;;;4.70;100.00;96341.88;5085621;28;20424;-72
2023/05/17 04:43:01;;;;;;;;;;;;;;;4.69;100.00;96346.19;5085376;28;19929;-73
2023/05/17 04:45:27;;;;;;;;;;;;;;;4.67;100.00;96349.66;5081575;28;19978;-73
2023/05/17 04:47:54;;;;;;;;;;;;;;;4.72;100.00;96353.78;5078974;28;19928;-72
2023/05/17 04:50:21;;;;;;;;;;;;;;;4.77;100.00;96349.34;5085948;28;19924;-73
2023/05/17 04:52:48;;;;;;;;;;;;;;;4.78;100.00;96350.19;5076797;28;19929;-73
2023/05/17 04:55:14;;;;;;;;;;;;;;;4.84;100.00;96358.53;5077359;28;19939;-73
2023/05/17 04:57:41;;;;;;;;;;;;;;;4.84;100.00;96350.84;5085918;28;19985;-72
2023/05/17 05:00:08;;;;;;;;;;;;;;;4.82;100.00;96356.91;5088210;28;20293;-72
2023/05/17 05:02:35;;;;;;;;;;;;;;;4.92;100.00;96358.28;5087261;28;19964;-72
2023/05/17 05:05:02;;;;;;;;;;;;;;;5.02;100.00;96359.69;5085691;28;20011;-72
2023/05/17 05:07:28;;;;;;;;;;;;;;;5.14;100.00;96360.19;5079413;28;19924;-72
2023/05/17 05:09:56;;;;;;;;;;;;;;;5.26;100.00;96362.34;5079710;28;19935;-72
2023/05/17 05:12:22;;;;;;;;;;;;;;;5.38;100.00;96364.56;5084982;28;20303;-72
2023/05/17 05:14:48;;;;;;;;;;;;;;;5.43;100.00;96372.94;5076065;28;19924;-72
2023/05/17 05:17:15;;;;;;;;;;;;;;;5.55;100.00;96377.66;5074900;28;20354;-73
2023/05/17 05:19:41;;;;;;;;;;;;;;;5.69;100.00;96376.38;5069830;28;19925;-73
2023/05/17 05:22:07;;;;;;;;;;;;;;;5.76;100.00;96385.56;5082918;28;19931;-74
2023/05/17 05:24:34;;;;;;;;;;;;;;;5.81;100.00;96387.06;5072830;28;19986;-73
2023/05/17 05:27:01;;;;;;;;;;;;;;;5.95;100.00;96388.38;5079682;28;20436;-73
2023/05/17 05:29:27;;;;;;;;;;;;;;;6.08;100.00;96394.72;5070682;28;20565;-74
2023/05/17 05:31:54;;;;;;;;;;;;;;;6.30;100.00;96403.41;5071684;28;20357;-73
2023/05/17 05:34:20;;;;;;;;;;;;;;;6.34;100.00;96392.97;5072762;28;19928;-73
2023/05/17 05:36:46;;;;;;;;;;;;;;;6.54;100.00;96396.50;5067519;28;19932;-74
2023/05/17 05:39:12;;;;;;;;;;;;;;;6.47;100.00;96397.63;5081200;28;19924;-74
2023/05/17 05:41:39;;;;;;;;;;;;;;;6.67;100.00;96396.03;5078685;28;19928;-73
2023/05/17 05:44:06;;;;;;;;;;;;;;;6.78;100.00;96406.78;5085679;28;19924;-73
2023/05/17 05:46:33;;;;;;;;;;;;;;;6.94;100.00;96404.50;5074444;28;19927;-74
2023/05/17 05:48:59;;;;;;;;;;;;;;;6.91;100.00;96397.72;5087726;28;19928;-74
2023/05/17 05:51:25;;;;;;;;;;;;;;;7.22;100.00;96404.25;5083136;28;19931;-74
2023/05/17 05:53:51;;;;;;;;;;;;;;;6.96;100.00;96416.38;5086396;28;19935;-73
2023/05/17 05:56:18;;;;;;;;;;;;;;;7.32;100.00;96410.72;5080628;28;19970;-72
2023/05/17 05:58:44;;;;;;;;;;;;;;;7.55;100.00;96412.38;5080754;28;19985;-72
2023/05/17 06:01:12;;;;;;;;;;;;;;;7.46;100.00;96421.31;5072712;28;19924;-71
2023/05/17 06:03:38;;;;;;;;;;;;;;;7.37;100.00;96424.25;5080049;28;19928;-72
2023/05/17 06:06:05;;;;;;;;;;;;;;;7.54;100.00;96422.75;5081816;28;19983;-71
2023/05/17 06:08:31;;;;;;;;;;;;;;;7.65;100.00;96433.47;5086770;28;19928;-72
2023/05/17 06:10:57;;;;;;;;;;;;;;;8.06;100.00;96430.91;5080635;28;19932;-71
2023/05/17 06:13:23;;;;;;;;;;;;;;;8.08;100.00;96432.50;5088453;28;20278;-72
2023/05/17 06:15:50;;;;;;;;;;;;;;;8.28;100.00;96420.50;5073053;28;20382;-68
2023/05/17 06:18:17;;;;;;;;;;;;;;;7.91;100.00;96429.81;5082151;28;19924;-72
2023/05/17 06:20:43;;;;;;;;;;;;;;;8.20;100.00;96432.00;5085416;28;20373;-71
2023/05/17 06:23:10;;;;;;;;;;;;;;;8.37;100.00;96431.28;5082735;28;19928;-72
2023/05/17 06:25:36;;;;;;;;;;;;;;;8.16;100.00;96435.63;5078901;28;19929;-71
2023/05/17 06:28:03;;;;;;;;;;;;;;;8.41;100.00;96442.31;5080194;28;20605;-71
2023/05/17 06:30:29;;;;;;;;;;;;;;;8.35;100.00;96440.81;5085170;28;19935;-72
2023/05/17 06:32:55;;;;;;;;;;;;;;;8.19;100.00;96447.53;5081406;28;20038;-72
2023/05/17 06:35:23;;;;;;;;;;;;;;;8.05;100.00;96450.72;5088931;28;19936;-71
2023/05/17 06:37:49;;;;;;;;;;;;;;;8.20;100.00;96457.81;5081415;28;19932;-72
2023/05/17 06:40:16;;;;;;;;;;;;;;;7.94;100.00;96453.72;5078623;28;19931;-72
2023/05/17 06:42:42;;;;;;;;;;;;;;;7.86;100.00;96452.34;5080377;28;19924;-72
2023/05/17 06:45:09;;;;;;;;;;;;;;;7.98;100.00;96452.69;5085030;28;19924;-72
2023/05/17 06:47:35;;;;;;;;;;;;;;;7.65;100.00;96448.94;5078779;28;20460;-73
2023/05/17 06:50:01;;;;;;;;;;;;;;;8.32;100.00;96451.28;5085012;28;20029;-71
2023/05/17 06:52:29;;;;;;;;;;;;;;;8.90;100.00;96448.75;5077741;28;19924;-71
2023/05/17 06:54:55;;;;;;;;;;;;;;;9.20;100.00;96441.31;5084337;28;19924;-73
2023/05/17 06:57:23;;;;;;;;;;;;;;;8.97;100.00;96438.94;5085639;28;20398;-73
2023/05/17 06:59:49;;;;;;;;;;;;;;;8.63;100.00;96447.38;5085724;28;19934;-73
2023/05/17 07:02:15;;;;;;;;;;;;;;;8.86;100.00;96444.63;5083186;28;20019;-72
2023/05/17 07:04:42;;;;;;;;;;;;;;;9.27;100.00;96438.44;5086260;28;19928;-73
2023/05/17 07:07:08;;;;;;;;;;;;;;;9.55;100.00;96441.41;5087528;28;19925;-73
2023/05/17 07:09:35;;;;;;;;;;;;;;;9.57;100.00;96456.88;5080878;28;19932;-73
2023/05/17 07:12:02;;;;;;;;;;;;;;;9.41;100.00;96451.56;5080360;28;20480;-73
2023/05/17 07:14:28;;;;;;;;;;;;;;;9.39;100.00;96453.41;5084020;28;20267;-73
2023/05/17 07:16:54;;;;;;;;;;;;;;;9.38;100.00;96449.97;5085313;28;19932;-74
2023/05/17 07:19:20;;;;;;;;;;;;;;;9.43;100.00;96449.75;5080994;28;19925;-73
2023/05/17 07:21:47;;;;;;;;;;;;;;;9.28;100.00;96451.31;5086389;28;19977;-74
2023/05/17 07:24:13;;;;;;;;;;;;;;;9.36;100.00;96451.78;5083339;28;19928;-73
2023/05/17 07:26:41;;;;;;;;;;;;;;;9.08;100.00;96453.97;5081705;28;19928;-73
2023/05/17 07:29:07;;;;;;;;;;;;;;;9.21;100.00;96455.09;5079970;28;20422;-73
2023/05/17 07:31:33;;;;;;;;;;;;;;;9.50;100.00;96458.91;5084145;28;20380;-75
2023/05/17 07:34:00;;;;;;;;;;;;;;;9.38;100.00;96457.72;5084499;28;19932;-74
2023/05/17 07:36:29;;;;;;;;;;;;;;;9.67;100.00;96466.66;5085852;28;19985;-75
2023/05/17 07:38:55;;;;;;;;;;;;;;;9.36;100.00;96464.72;5081773;28;19970;-74
2023/05/17 07:41:22;;;;;;;;;;;;;;;9.19;100.00;96467.22;5083687;28;20485;-74
2023/05/17 07:43:50;;;;;;;;;;;;;;;9.54;100.00;96463.00;5074250;28;19931;-74
2023/05/17 07:46:16;;;;;;;;;;;;;;;9.86;100.00;96470.94;5072018;28;20015;-73
2023/05/17 07:48:42;;;;;;;;;;;;;;;9.86;100.00;96468.38;5081758;28;19931;-74
2023/05/17 07:51:09;;;;;;;;;;;;;;;9.55;100.00;96472.44;5083688;28;19928;-74
2023/05/17 07:53:35;;;;;;;;;;;;;;;9.50;100.00;96471.81;5091229;28;19931;-74
2023/05/17 07:56:01;;;;;;;;;;;;;;;9.51;100.00;96464.91;5078047;28;19925;-74
2023/05/17 07:58:27;;;;;;;;;;;;;;;9.70;100.00;96470.88;5067826;28;19924;-75
2023/05/17 08:00:55;;;;;;;;;;;;;;;9.55;100.00;96469.00;5073159;28;19929;-74
2023/05/17 08:03:21;;;;;;;;;;;;;;;9.80;100.00;96474.69;5082971;28;20336;-73
2023/05/17 08:05:47;;;;;;;;;;;;;;;9.65;100.00;96480.59;5081201;28;19948;-74
2023/05/17 08:08:14;;;;;;;;;;;;;;;9.93;100.00;96473.16;5087237;28;19928;-74
2023/05/17 08:10:42;;;;;;;;;;;;;;;9.81;100.00;96475.53;5076362;28;20403;-74
2023/05/17 08:13:08;;;;;;;;;;;;;;;9.86;100.00;96471.81;5083934;28;19928;-75
2023/05/17 08:15:34;;;;;;;;;;;;;;;10.00;100.00;96476.28;5080890;28;19924;-75
2023/05/17 08:18:02;;;;;;;;;;;;;;;9.42;100.00;96474.78;5083088;28;19982;-75
2023/05/17 08:20:28;;;;;;;;;;;;;;;9.55;100.00;96479.34;5080809;28;19928;-75
2023/05/17 08:22:55;;;;;;;;;;;;;;;10.02;100.00;96477.06;5074488;28;20126;-75
2023/05/17 08:25:21;;;;;;;;;;;;;;;10.29;100.00;96471.47;5075248;28;19925;-75
2023/05/17 08:27:47;;;;;;;;;;;;;;;10.32;100.00;96464.38;5075914;28;19978;-74
2023/05/17 08:30:14;;;;;;;;;;;;;;;10.30;100.00;96468.78;5075531;28;20306;-74
2023/05/17 08:32:40;;;;;;;;;;;;;;;10.47;100.00;96465.34;5077318;28;19932;-73
2023/05/17 08:35:08;;;;;;;;;;;;;;;10.40;100.00;96471.75;5074758;28;19924;-73
2023/05/17 08:37:34;;;;;;;;;;;;;;;10.18;100.00;96464.19;5078261;28;19928;-73
2023/05/17 08:40:00;;;;;;;;;;;;;;;10.15;100.00;96465.16;5068312;28;20380;-73
2023/05/17 08:42:28;;;;;;;;;;;;;;;10.08;100.00;96463.81;5074410;28;19928;-74
2023/05/17 08:44:55;;;;;;;;;;;;;;;9.82;100.00;96464.25;5083483;28;20336;-73
2023/05/17 08:47:28;;;;;;;;;;;;;;;9.82;100.00;96472.84;5080033;28;20423;-73
2023/05/17 08:49:56;;;;;;;;;;;;;;;9.73;100.00;96467.31;5073461;28;19932;-72
2023/05/17 08:52:24;;;;;;;;;;;;;;;9.77;100.00;96467.06;5074310;28;20314;-73
2023/05/17 08:54:50;;;;;;;;;;;;;;;10.27;100.00;96465.50;5067266;28;19932;-72
2023/05/17 08:57:16;;;;;;;;;;;;;;;10.77;100.00;96457.72;5070907;28;19925;-72
2023/05/17 08:59:43;;;;;;;;;;;;;;;11.31;100.00;96453.09;5080703;28;20467;-74
2023/05/17 09:02:10;;;;;;;;;;;;;;;10.63;100.00;96476.56;5075382;28;19928;-73
2023/05/17 09:04:36;;;;;;;;;;;;;;;10.02;100.00;96469.31;5072586;28;19928;-73
2023/05/17 09:07:03;;;;;;;;;;;;;;;10.62;100.00;96474.91;5079618;28;19924;-76
2023/05/17 09:09:31;;;;;;;;;;;;;;;10.67;100.00;96474.66;5085207;28;20306;-76
2023/05/17 09:11:57;;;;;;;;;;;;;;;10.72;90.09;96474.44;5074988;28;19932;-76
2023/05/17 09:14:23;;;;;;;;;;;;;;;11.00;88.62;96477.25;5074882;28;19947;-73
2023/05/17 09:16:56;;;;;;;;;;;;;;;11.24;87.91;96469.09;5080463;28;19982;-73
2023/05/17 09:19:22;;;;;;;;;;;;;;;11.15;81.52;96463.47;5069763;28;19934;-74
2023/05/17 09:21:48;;;;;;;;;;;;;;;11.43;85.85;96466.31;5075195;28;19929;-73
2023/05/17 09:24:19;;;;;;;;;;;;;;;11.78;83.20;96470.38;5081574;28;19978;-73
2023/05/17 09:26:46;;;;;;;;;;;;;;;11.75;87.77;96473.13;5076919;28;19932;-74
2023/05/17 09:29:13;;;;;;;;;;;;;;;11.71;89.53;96468.19;5084331;28;19978;-74
2023/05/17 09:31:40;;;;;;;;;;;;;;;11.33;87.49;96477.19;5076339;28;19957;-74
2023/05/17 09:34:07;;;;;;;;;;;;;;;11.47;86.61;96475.59;5086478;28;20037;-74
2023/05/17 09:36:35;;;;;;;;;;;;;;;11.31;88.09;96483.38;5071614;28;19924;-74
2023/05/17 09:39:03;;;;;;;;;;;;;;;10.82;87.21;96479.03;5071111;28;19932;-74
2023/05/17 09:41:30;;;;;;;;;;;;;;;10.81;89.27;96474.78;5070023;28;19928;-74
2023/05/17 09:43:59;;;;;;;;;;;;;;;10.86;88.81;96477.13;5074567;28;20340;-74
2023/05/17 09:46:26;;;;;;;;;;;;;;;10.69;85.41;96478.03;5070685;28;19977;-74
2023/05/17 09:48:55;;;;;;;;;;;;;;;10.40;89.58;96482.09;5074622;28;20417;-73
2023/05/17 09:51:31;;;;;;;;;;;;;;;10.77;93.48;96483.63;5087219;28;19932;-74
2023/05/17 09:53:57;;;;;;;;;;;;;;;10.95;95.45;96475.81;5076780;28;19997;-73
2023/05/17 09:56:27;;;;;;;;;;;;;;;10.45;88.32;96479.28;5083373;28;19932;-76
2023/05/17 09:58:53;;;;;;;;;;;;;;;10.48;86.90;96471.34;5091514;28;20313;-74
2023/05/17 10:01:21;;;;;;;;;;;;;;;10.55;86.72;96470.97;5081971;28;19929;-76
2023/05/17 10:03:50;;;;;;;;;;;;;;;10.22;86.87;96473.47;5091341;28;19935;-76
2023/05/17 10:06:18;;;;;;;;;;;;;;;9.92;92.04;96486.19;5080936;28;19977;-74
2023/05/17 10:08:46;;;;;;;;;;;;;;;10.45;94.54;96484.47;5072878;28;19946;-75
2023/05/17 10:11:12;;;;;;;;;;;;;;;9.95;92.63;96488.63;5079176;28;19924;-75
2023/05/17 10:13:42;;;;;;;;;;;;;;;10.13;93.20;96490.31;5090629;28;19928;-74
2023/05/17 10:16:09;;;;;;;;;;;;;;;10.05;92.50;96489.88;5080107;28;19964;-74
2023/05/17 10:18:38;;;;;;;;;;;;;;;10.15;100.00;96492.81;5090994;28;19924;-74
2023/05/17 10:21:06;;;;;;;;;;;;;;;10.24;96.40;96499.31;5075972;28;20394;-74
2023/05/17 10:23:33;;;;;;;;;;;;;;;10.07;94.41;96500.97;5086223;28;19924;-74
2023/05/17 10:26:00;;;;;;;;;;;;;;;10.10;92.78;96499.97;5082842;28;19990;-74
2023/05/17 10:28:27;;;;;;;;;;;;;;;9.77;95.52;96492.94;5093776;28;19924;-74
2023/05/17 10:30:53;;;;;;;;;;;;;;;9.70;97.71;96494.13;5075231;28;19935;-74
2023/05/17 10:33:20;;;;;;;;;;;;;;;10.02;98.23;96502.13;5082625;28;19928;-74
2023/05/17 10:35:49;;;;;;;;;;;;;;;9.93;98.83;96496.44;5082377;28;20046;-74
2023/05/17 10:38:16;;;;;;;;;;;;;;;9.92;97.64;96497.38;5089919;28;19954;-74
2023/05/17 10:40:43;;;;;;;;;;;;;;;9.45;98.36;96494.44;5083641;28;19925;-74
2023/05/17 10:43:10;;;;;;;;;;;;;;;9.92;100.00;96494.78;5087903;28;19924;-74
2023/05/17 10:45:37;;;;;;;;;;;;;;;9.76;98.92;96493.03;5076729;28;19933;-74
2023/05/17 10:48:04;;;;;;;;;;;;;;;9.87;95.16;96499.34;5081528;28;19924;-74
2023/05/17 10:50:31;;;;;;;;;;;;;;;10.12;96.60;96500.72;5081059;28;19925;-74
2023/05/17 10:52:59;;;;;;;;;;;;;;;10.07;94.25;96500.97;5074799;28;19924;-74
2023/05/17 10:55:36;;;;;;;;;;;;;;;10.48;98.63;96492.91;5086889;28;19924;-69
2023/05/17 10:58:23;;;;;;;;;;;;;;;10.61;97.36;96490.53;5082361;28;20324;-73
2023/05/17 11:00:52;;;;;;;;;;;;;;;10.66;90.48;96493.72;5078898;28;19970;-72
2023/05/17 11:03:19;;;;;;;;;;;;;;;10.77;91.60;96494.00;5082146;28;19932;-72
2023/05/17 11:06:06;;;;;;;;;;;;;;;10.90;91.72;96489.00;5079261;28;20297;-72
2023/05/17 11:08:33;;;;;;;;;;;;;;;11.11;94.48;96487.03;5077040;28;20020;-74
2023/05/17 11:11:10;;;;;;;;;;;;;;;11.52;92.73;96482.19;5074730;28;20405;-73
2023/05/17 11:13:44;;;;;;;;;;;;;;;11.13;90.76;96490.41;5078956;28;20018;-73
2023/05/17 11:16:10;;;;;;;;;;;;;;;11.21;89.11;96490.00;5084752;28;19925;-73
2023/05/17 11:18:46;;;;;;;;;;;;;;;11.20;87.15;96490.88;5088990;28;20390;-73
2023/05/17 11:21:13;;;;;;;;;;;;;;;11.31;91.03;96483.38;5090732;28;19924;-72
2023/05/17 11:23:42;;;;;;;;;;;;;;;11.31;85.88;96489.41;5087683;28;20019;-73
2023/05/17 11:26:12;;;;;;;;;;;;;;;11.07;84.28;96490.72;5077206;28;19928;-73
2023/05/17 11:28:38;;;;;;;;;;;;;;;10.88;84.28;96489.09;5074705;28;19932;-73
2023/05/17 11:31:06;;;;;;;;;;;;;;;10.80;88.43;96485.25;5077375;28;19931;-74
2023/05/17 11:33:41;;;;;;;;;;;;;;;10.78;88.15;96494.84;5073340;28;19994;-74
2023/05/17 11:36:14;;;;;;;;;;;;;;;10.83;90.52;96487.69;5074957;28;19929;-73
2023/05/17 11:38:41;;;;;;;;;;;;;;;10.90;90.73;96489.88;5068996;28;19935;-73
2023/05/17 11:41:18;;;;;;;;;;;;;;;10.84;90.76;96492.78;5076526;28;19924;-73
2023/05/17 11:43:45;;;;;;;;;;;;;;;10.72;91.14;96493.41;5075255;28;19928;-71
2023/05/17 11:46:18;;;;;;;;;;;;;;;10.95;93.79;96488.78;5078582;28;19970;-73
2023/05/17 11:48:46;;;;;;;;;;;;;;;10.72;86.24;96485.66;5081947;28;20024;-70
2023/05/17 11:51:13;;;;;;;;;;;;;;;10.60;85.67;96486.25;5081075;28;20324;-71
2023/05/17 11:53:40;;;;;;;;;;;;;;;10.80;86.70;96493.84;5078679;28;19932;-71
2023/05/17 11:56:09;;;;;;;;;;;;;;;10.83;85.28;96488.50;5086274;28;19947;-72
2023/05/17 11:58:36;;;;;;;;;;;;;;;11.00;86.61;96491.97;5067298;28;19932;-72
2023/05/17 12:01:04;;;;;;;;;;;;;;;10.76;90.86;96487.16;5081730;28;19928;-72
2023/05/17 12:03:32;;;;;;;;;;;;;;;10.63;90.67;96486.09;5073430;28;19924;-73
2023/05/17 12:06:03;;;;;;;;;;;;;;;10.71;90.03;96489.13;5077968;28;19928;-74
2023/05/17 12:08:30;;;;;;;;;;;;;;;10.74;86.81;96490.75;5078226;28;19968;-73
2023/05/17 12:10:57;;;;;;;;;;;;;;;10.86;85.55;96492.69;5081273;28;20341;-73
2023/05/17 12:13:27;;;;;;;;;;;;;;;10.76;89.53;96487.16;5077336;28;19932;-74
2023/05/17 12:15:55;;;;;;;;;;;;;;;10.64;86.15;96498.13;5080975;28;19929;-73
2023/05/17 12:18:21;;;;;;;;;;;;;;;10.71;87.25;96486.53;5086291;28;19978;-72
2023/05/17 12:20:55;;;;;;;;;;;;;;;11.06;87.75;96494.25;5080020;28;19932;-73
2023/05/17 12:23:31;;;;;;;;;;;;;;;10.99;83.81;96490.28;5082446;28;20019;-73
2023/05/17 12:26:07;;;;;;;;;;;;;;;11.34;92.69;96488.38;5076345;28;20379;-73
2023/05/17 12:28:35;;;;;;;;;;;;;;;11.48;84.64;96479.88;5073466;28;19928;-72
2023/05/17 12:31:02;;;;;;;;;;;;;;;11.32;84.87;96485.91;5075970;28;19925;-73
2023/05/17 12:33:30;;;;;;;;;;;;;;;11.10;81.42;96481.03;5079433;28;19932;-72
2023/05/17 12:35:57;;;;;;;;;;;;;;;11.29;85.48;96478.28;5075669;28;19970;-73
2023/05/17 12:38:25;;;;;;;;;;;;;;;11.26;87.23;96478.44;5069467;28;19932;-72
2023/05/17 12:40:51;;;;;;;;;;;;;;;11.23;84.66;96481.19;5068285;28;19925;-72
2023/05/17 12:43:18;;;;;;;;;;;;;;;11.29;87.73;96477.44;5066217;28;19925;-74
2023/05/17 12:45:47;;;;;;;;;;;;;;;11.27;83.04;96476.69;5079382;28;19969;-74